Pagrindinis puslapis
METAR-TAF:

METAR-TAF

Oro uostai :

Burgosas, Ispanija

platuma: 42-22N, ilguma: 003-38W, Aukštis: 894 m

Dabartinis oras

Ataskaita buvo paskelbta 35 minutes, ne 20:00 UTC
Vėjas 5 kt iš Šiaurės/Šiaurės Rytų
Temperatūra 6°C
Drėgmė 65%
Slėgis 1019 hPa
Matomumas 10 km arba daugiau
nėra debesų žemiau 1500 m ir nėra kamuolinių lietaus debesų

METAR: LEBG 282000Z AUTO 03005KT CAVOK 06/00 Q1019

Laikas: 21:35 (20:35 UTC)

Prognozė

Ataskaita buvo paskelbta 3 valandos ir 35 minutes, ne 17:00 UTC
Prognozė galioja nuo 28 metu 18 UTC su 29 metu 03 UTC
Vėjas 8 kt iš Rytų/Šiaurės Rytų
Matomumas 10 km arba daugiau
nėra debesų žemiau 1500 m ir nėra kamuolinių lietaus debesų

TAF: LEBG 281700Z 2818/2903 07008KT CAVOK

Orai ataskaitas ir orų prognozės (METAR, TAF).

turimą stotys yra geltonos ir raudonos taškus žemėlapyje.

Perkelti pele per norėdami pamatyti stoties vardą.

Tada spustelėkite, norėdami matyti oro stebėjimo ir prognozės.

Norėdami pakeisti žemėlapį: spustelėkite ant žalios mygtukų su juodo kryžiaus žemyn,; žalią mygtuką su brūkšneliu, jei norite nutolinti; arba žalių rodyklių gretimoms žemėlapius.


METAR-TAF: